Time;durP1;ratioP1;P1;durP2;ratioP2;P2;SDS_P1;SDS_P2;PMS_P1;PMS_P2;Temp;Humidity;BMP_temperature;BMP_pressure;BME280_temperature;BME280_humidity;BME280_pressure;Samples;Min_cycle;Max_cycle;Signal;HPM_P1;HPM_P2
2021/05/11 00:01:05;;;;;;;3.28;2.50;;;12.90;99.90;;;11.72;93.26;100763.88;4910794;28;19935;-80
2021/05/11 00:03:36;;;;;;;6.65;3.20;;;13.00;99.90;;;11.74;93.62;100766.44;4915710;28;20365;-81
2021/05/11 00:05:59;;;;;;;8.48;3.60;;;12.90;99.90;;;11.69;94.17;100771.94;4914208;28;20032;-83
2021/05/11 00:08:29;;;;;;;4.93;3.28;;;12.80;99.90;;;11.55;94.14;100772.63;4913112;28;20048;-80
2021/05/11 00:10:55;;;;;;;5.18;2.95;;;;;;;11.56;94.08;100760.31;4909775;28;20051;-81
2021/05/11 00:13:34;;;;;;;6.43;3.47;;;12.80;99.90;;;11.63;94.13;100756.44;4913386;28;20052;-80
2021/05/11 00:15:59;;;;;;;9.82;3.45;;;12.70;99.90;;;11.52;94.08;100756.97;4913251;28;20093;-81
2021/05/11 00:18:22;;;;;;;6.13;3.73;;;12.70;99.90;;;11.41;94.10;100767.19;4912794;28;20407;-81
2021/05/11 00:20:45;;;;;;;7.65;3.75;;;12.60;99.90;;;11.35;94.32;100772.78;4911982;28;20480;-80
2021/05/11 00:23:10;;;;;;;6.97;3.45;;;12.50;99.90;;;11.33;94.87;100767.56;4914082;28;20770;-84
2021/05/11 00:25:33;;;;;;;7.00;3.53;;;12.50;99.90;;;11.33;94.92;100750.91;4918186;28;20048;-81
2021/05/11 00:27:58;;;;;;;7.65;4.13;;;;;;;11.47;94.88;100744.00;4912505;28;20044;-81
2021/05/11 00:30:22;;;;;;;8.20;4.18;;;12.70;99.90;;;11.56;94.80;100750.59;4909364;28;20040;-81
2021/05/11 00:32:51;;;;;;;8.77;4.40;;;12.70;99.90;;;11.49;95.15;100736.03;4912835;28;20487;-81
2021/05/11 00:35:19;;;;;;;9.23;4.00;;;12.60;99.90;;;11.34;94.97;100747.31;4913286;28;20086;-83
2021/05/11 00:37:41;;;;;;;9.38;3.90;;;12.50;99.90;;;11.37;96.38;100741.91;4908285;28;20141;-82
2021/05/11 00:40:07;;;;;;;5.68;3.95;;;12.50;99.90;;;11.34;96.32;100736.78;4913614;28;20070;-82
2021/05/11 00:42:32;;;;;;;6.18;4.05;;;12.60;99.90;;;11.40;96.00;100723.28;4913618;28;20048;-83
2021/05/11 00:44:55;;;;;;;9.13;3.87;;;12.60;99.90;;;11.50;95.48;100719.28;4905678;28;20810;-82
2021/05/11 00:47:23;;;;;;;7.80;4.18;;;12.70;99.90;;;11.56;95.01;100716.31;4910560;28;20048;-81
2021/05/11 00:49:48;;;;;;;7.53;4.18;;;12.70;99.90;;;11.52;94.76;100703.38;4912038;28;20070;-81
2021/05/11 00:52:12;;;;;;;8.38;4.97;;;12.70;99.90;;;11.56;94.13;100691.75;4913269;28;20132;-82
2021/05/11 00:54:36;;;;;;;7.45;4.57;;;12.80;99.90;;;11.65;93.96;100686.84;4914195;28;20041;-81
2021/05/11 00:57:20;;;;;;;10.02;5.38;;;12.80;99.90;;;11.63;94.14;100693.97;4912032;28;20092;-82
2021/05/11 00:59:44;;;;;;;7.07;4.70;;;12.80;99.90;;;11.57;94.14;100702.19;4899110;28;20041;-81
2021/05/11 01:02:10;;;;;;;8.38;4.55;;;12.80;99.90;;;11.63;94.64;100701.03;4908477;28;20477;-82
2021/05/11 01:04:33;;;;;;;12.18;5.50;;;12.80;99.90;;;11.60;94.68;100702.06;4913577;28;20143;-81
2021/05/11 01:06:57;;;;;;;10.95;5.18;;;12.70;99.90;;;11.52;94.64;100698.09;4911759;28;20048;-81
2021/05/11 01:09:22;;;;;;;8.57;4.90;;;12.70;99.90;;;11.52;94.82;100680.50;4913846;28;20071;-81
2021/05/11 01:12:08;;;;;;;9.70;4.68;;;12.70;99.90;;;11.60;94.68;100654.59;4906250;28;20055;-81
2021/05/11 01:14:31;;;;;;;12.45;5.07;;;12.70;99.90;;;11.65;94.30;100642.00;4911980;28;20480;-82
2021/05/11 01:17:04;;;;;;;6.68;5.07;;;12.70;99.90;;;11.52;94.33;100635.66;4911720;28;20052;-81
2021/05/11 01:19:42;;;;;;;9.88;5.30;;;12.70;99.90;;;11.52;94.51;100638.31;4913114;28;20044;-80
2021/05/11 01:22:22;;;;;;;8.15;5.47;;;12.80;99.90;;;11.63;93.26;100650.94;4892134;28;20071;-81
2021/05/11 01:24:47;;;;;;;11.70;5.93;;;12.80;99.90;;;11.61;93.59;100661.56;4912844;28;20063;-82
2021/05/11 01:27:27;;;;;;;9.23;5.60;;;12.70;99.90;;;11.48;94.17;100665.75;4911508;28;20041;-81
2021/05/11 01:29:58;;;;;;;8.20;4.30;;;12.70;99.90;;;11.45;94.74;100665.94;4909486;28;20052;-81
2021/05/11 01:32:50;;;;;;;10.20;4.95;;;12.70;99.90;;;11.54;94.30;100665.44;4911198;28;20414;-82
2021/05/11 01:46:30;;;;;;;10.18;4.97;;;12.50;99.90;;;11.18;96.13;100662.91;4911333;28;20133;-81
2021/05/11 01:49:01;;;;;;;9.25;5.80;;;12.30;99.90;;;11.08;96.32;100658.09;4910459;28;20458;-81
2021/05/11 01:51:47;;;;;;;13.10;6.32;;;12.30;99.90;;;11.06;96.48;100661.75;4910491;28;20203;-80
2021/05/11 01:54:33;;;;;;;9.25;5.50;;;12.20;99.90;;;11.04;96.77;100672.34;4920923;28;20041;-82
2021/05/11 02:11:23;;;;;;;9.20;5.40;;;12.50;99.90;;;11.41;94.33;100648.56;4906818;28;20056;-82
2021/05/11 02:24:44;;;;;;;6.72;4.63;;;12.50;99.90;;;11.18;94.80;100660.25;4906474;28;20522;-81
2021/05/11 02:27:21;;;;;;;6.78;4.35;;;12.40;99.90;;;11.06;95.43;100659.94;4911319;28;20392;-81
2021/05/11 02:29:47;;;;;;;9.57;4.10;;;12.30;99.90;;;11.01;95.54;100654.03;4907419;28;20045;-82
2021/05/11 02:32:12;;;;;;;5.10;3.95;;;12.20;99.90;;;11.01;95.58;100656.66;4912030;28;20048;-81
2021/05/11 02:34:35;;;;;;;6.57;4.22;;;;;;;10.91;96.00;100655.44;4909776;28;20044;-81
2021/05/11 02:37:04;;;;;;;7.13;4.70;;;12.20;99.90;;;10.95;96.05;100656.13;4912081;28;20044;-83
2021/05/11 02:39:29;;;;;;;8.20;4.50;;;12.10;99.90;;;10.88;96.54;100656.44;4891543;28;20044;-80
2021/05/11 02:41:51;;;;;;;8.53;4.37;;;12.00;99.90;;;10.80;96.26;100660.38;4898139;28;20060;-80
2021/05/11 02:44:18;;;;;;;6.75;4.20;;;12.00;99.90;;;10.75;96.70;100652.69;4899422;28;20067;-81
2021/05/11 02:46:41;;;;;;;6.85;4.60;;;11.90;99.90;;;10.58;96.77;100652.63;4914770;28;20041;-81
2021/05/11 02:49:06;;;;;;;8.00;4.43;;;11.80;99.90;;;10.48;97.54;100652.25;4914631;28;20105;-81
2021/05/11 02:51:30;;;;;;;8.98;4.93;;;11.70;99.90;;;10.40;97.70;100651.75;4906752;28;20373;-81
2021/05/11 02:53:53;;;;;;;6.85;5.00;;;11.60;99.90;;;10.34;97.41;100647.59;4912243;28;20037;-82
2021/05/11 02:56:25;;;;;;;8.25;5.13;;;11.60;99.90;;;10.28;97.87;100645.25;4916159;28;20075;-81
2021/05/11 02:58:49;;;;;;;8.25;5.32;;;;;;;10.32;98.32;100646.81;4910926;28;20070;-81
2021/05/11 03:01:16;;;;;;;9.38;5.93;;;11.50;99.90;;;10.23;98.82;100653.34;4903762;28;20453;-81
2021/05/11 03:03:40;;;;;;;7.80;5.20;;;11.40;99.90;;;10.13;98.17;100640.69;4896731;28;20087;-81
2021/05/11 03:06:03;;;;;;;12.02;6.32;;;11.30;99.90;;;10.01;98.61;100626.31;4913515;28;20325;-80
2021/05/11 03:08:35;;;;;;;13.13;5.95;;;11.20;99.90;;;9.86;99.15;100622.59;4914468;28;20045;-83
2021/05/11 03:10:58;;;;;;;13.75;6.22;;;11.20;99.90;;;9.97;100.00;100615.06;4912273;28;20074;-82
2021/05/11 03:13:21;;;;;;;12.15;6.72;;;11.30;99.90;;;10.03;100.00;100613.97;4914418;28;20044;-81
2021/05/11 03:16:02;;;;;;;11.95;6.78;;;11.40;99.90;;;10.29;100.00;100606.63;4914097;28;20068;-80
2021/05/11 03:18:31;;;;;;;10.18;6.65;;;11.50;99.90;;;10.38;99.92;100596.53;4904521;28;20082;-82
2021/05/11 03:20:54;;;;;;;13.77;7.40;;;11.70;99.90;;;10.60;99.41;100588.44;4909672;28;20082;-81
2021/05/11 03:23:17;;;;;;;11.73;6.63;;;11.90;99.90;;;10.70;99.06;100591.50;4914405;28;20120;-83
2021/05/11 03:25:40;;;;;;;12.27;7.13;;;;;;;10.75;99.28;100581.56;4915037;28;20124;-82
2021/05/11 03:28:04;;;;;;;13.25;6.20;;;12.00;99.90;;;10.76;99.12;100592.97;4914165;28;20129;-83
2021/05/11 03:30:27;;;;;;;10.30;6.93;;;12.00;99.90;;;10.78;99.09;100591.97;4906386;28;20041;-81
2021/05/11 03:32:50;;;;;;;10.60;6.00;;;12.10;99.90;;;10.87;98.83;100594.13;4911885;28;20052;-81
2021/05/11 03:35:14;;;;;;;8.30;5.95;;;12.10;99.90;;;10.92;98.82;100583.38;4905836;28;20044;-81
2021/05/11 03:37:53;;;;;;;8.95;5.85;;;12.20;99.90;;;10.99;98.73;100584.78;4910491;28;20076;-80
2021/05/11 03:40:16;;;;;;;7.22;4.75;;;12.20;99.90;;;11.11;98.28;100587.72;4904110;28;20082;-81
2021/05/11 03:42:51;;;;;;;9.68;5.13;;;12.30;99.90;;;11.20;97.36;100572.28;4923615;28;20052;-83
2021/05/11 03:45:16;;;;;;;8.93;4.77;;;12.50;99.90;;;11.39;96.50;100566.06;4914063;28;20077;-82
2021/05/11 03:47:44;;;;;;;7.07;4.43;;;12.60;99.90;;;11.45;95.88;100560.47;4912014;28;20538;-82
2021/05/11 03:50:08;;;;;;;8.35;4.65;;;12.70;99.90;;;11.48;95.88;100565.56;4912446;28;20102;-82
2021/05/11 03:52:51;;;;;;;10.60;4.95;;;12.70;99.90;;;11.57;95.72;100562.44;4913720;28;20048;-80
2021/05/11 03:55:14;;;;;;;8.25;4.05;;;12.80;99.90;;;11.69;95.47;100563.56;4895020;28;20068;-81
2021/05/11 03:57:37;;;;;;;6.63;4.20;;;12.90;99.90;;;11.78;94.91;100557.78;4906405;28;20082;-80
2021/05/11 04:00:05;;;;;;;5.30;4.07;;;13.00;99.90;;;11.89;94.24;100565.16;4912956;28;20051;-82
2021/05/11 04:02:28;;;;;;;6.82;4.53;;;13.20;99.90;;;11.98;93.67;100554.09;4913664;28;20510;-83
2021/05/11 04:04:51;;;;;;;6.88;4.30;;;13.40;99.90;;;12.28;92.75;100561.25;4907912;28;20045;-81
2021/05/11 04:07:20;;;;;;;5.85;3.45;;;13.80;99.90;;;12.57;91.33;100562.25;4913165;28;20494;-82
2021/05/11 04:09:48;;;;;;;7.75;3.85;;;;;;;12.74;89.72;100571.81;4914060;28;20052;-82
2021/05/11 04:12:29;;;;;;;5.00;3.42;;;14.10;99.90;;;12.68;89.77;100572.19;4907467;28;20480;-82
2021/05/11 04:17:33;;;;;;;7.88;3.58;;;14.60;99.90;;;13.18;87.69;100567.50;4911838;28;20060;-82
2021/05/11 04:19:58;;;;;;;4.57;3.10;;;14.90;99.90;;;13.44;86.97;100573.91;4912414;28;20048;-82
2021/05/11 04:22:21;;;;;;;6.33;3.23;;;15.10;99.90;;;13.58;86.29;100570.38;4907841;28;20044;-80
2021/05/11 04:24:45;;;;;;;6.93;3.05;;;15.30;99.90;;;13.36;86.16;100578.78;4913098;28;20044;-80
2021/05/11 04:27:16;;;;;;;5.22;3.45;;;15.50;99.90;;;13.76;84.32;100587.78;4908515;28;20102;-83
2021/05/11 04:29:38;;;;;;;5.53;2.88;;;15.60;99.90;;;13.97;83.94;100580.28;4912909;28;20479;-82
2021/05/11 04:32:05;;;;;;;4.78;2.97;;;15.70;99.90;;;13.94;84.50;100583.13;4913670;28;20049;-83
2021/05/11 04:34:30;;;;;;;4.95;3.10;;;15.80;99.90;;;14.05;84.51;100575.34;4912138;28;20040;-82
2021/05/11 04:36:53;;;;;;;5.40;2.87;;;16.10;99.90;;;14.61;82.10;100574.47;4907852;28;20060;-80
2021/05/11 04:39:25;;;;;;;4.90;2.90;;;16.50;99.90;;;14.78;80.86;100582.16;4911503;28;20403;-82
2021/05/11 04:41:49;;;;;;;5.30;3.00;;;;;;;15.55;77.84;100577.78;4910339;28;20098;-83
2021/05/11 04:44:12;;;;;;;6.28;2.90;;;17.20;99.90;;;15.33;78.76;100586.41;4912231;28;20067;-82
2021/05/11 04:46:49;;;;;;;3.72;2.42;;;17.30;99.90;;;15.45;77.24;100586.50;4912956;28;20698;-82
2021/05/11 04:49:37;;;;;;;6.75;2.90;;;16.90;99.90;;;14.87;79.61;100581.53;4909300;28;20045;-84
2021/05/11 04:52:00;;;;;;;5.75;3.42;;;16.50;99.90;;;14.68;80.82;100571.31;4906101;28;20051;-82
2021/05/11 04:54:23;;;;;;;6.72;3.45;;;16.40;99.90;;;14.39;81.25;100573.19;4909072;28;20189;-82
2021/05/11 04:56:46;;;;;;;6.43;2.95;;;16.10;99.90;;;14.64;80.56;100561.84;4912147;28;20476;-90
2021/05/11 04:59:10;;;;;;;5.18;3.28;;;16.00;99.90;;;14.46;80.72;100563.06;4918249;28;20407;-82
2021/05/11 05:01:35;;;;;;;5.22;3.28;;;16.20;99.90;;;14.73;80.13;100561.25;4911908;28;20040;-83
2021/05/11 05:03:59;;;;;;;5.93;3.15;;;16.30;99.90;;;14.83;79.63;100550.88;4912285;28;20082;-83
2021/05/11 05:06:22;;;;;;;5.13;3.22;;;16.80;99.90;;;14.74;78.88;100562.09;4911988;28;20052;-81
2021/05/11 05:08:55;;;;;;;5.72;3.10;;;17.00;99.90;;;15.74;75.70;100556.16;4911308;28;20052;-82
2021/05/11 05:11:18;;;;;;;6.90;3.47;;;17.50;99.90;;;16.21;74.32;100561.63;4904833;28;20089;-83
2021/05/11 05:13:49;;;;;;;6.45;3.50;;;17.60;99.90;;;15.85;74.57;100557.16;4903700;28;20056;-82
2021/05/11 05:16:13;;;;;;;8.88;3.40;;;17.90;99.90;;;16.35;72.37;100566.81;4903164;28;20067;-83
2021/05/11 05:18:36;;;;;;;8.23;3.10;;;18.10;99.90;;;16.97;70.62;100556.91;4911042;28;20070;-80
2021/05/11 05:21:15;;;;;;;4.75;2.53;;;18.30;99.90;;;15.83;74.18;100569.69;4911328;28;20529;-80
2021/05/11 05:23:44;;;;;;;5.50;3.05;;;18.20;99.90;;;16.65;72.90;100567.28;4909990;28;20132;-83
2021/05/11 05:26:10;;;;;;;5.22;2.80;;;18.40;99.90;;;16.57;71.42;100571.38;4911734;28;20128;-83
2021/05/11 05:28:37;;;;;;;6.88;3.10;;;18.10;99.90;;;16.16;73.75;100564.63;4903555;28;20049;-81
2021/05/11 05:31:02;;;;;;;8.35;2.83;;;18.10;99.90;;;16.44;73.58;100562.63;4910609;28;20048;-81
2021/05/11 05:33:32;;;;;;;5.43;2.80;;;18.50;99.90;;;17.64;69.97;100548.16;4911881;28;20458;-82
2021/05/11 05:35:55;;;;;;;6.93;2.47;;;19.00;99.90;;;17.42;68.15;100533.91;4908815;28;20075;-81
2021/05/11 05:38:22;;;;;;;4.75;3.00;;;18.70;99.90;;;16.77;71.46;100543.28;4911114;28;20411;-86
2021/05/11 05:40:44;;;;;;;3.72;2.45;;;18.60;99.90;;;16.80;72.22;100553.75;4915278;28;20047;-81
2021/05/11 05:43:13;;;;;;;5.07;2.45;;;18.80;99.90;;;17.61;68.68;100556.41;4906764;28;20586;-81
2021/05/11 05:45:42;;;;;;;4.72;2.88;;;18.70;99.90;;;17.24;71.22;100558.44;4910940;28;20090;-83
2021/05/11 05:48:06;;;;;;;5.50;2.88;;;18.40;99.90;;;16.39;74.31;100555.00;4910698;28;20041;-82
2021/05/11 05:50:34;;;;;;;3.80;2.25;;;18.30;99.90;;;16.38;73.06;100558.59;4911630;28;20048;-81
2021/05/11 05:53:01;;;;;;;5.80;2.58;;;18.40;99.90;;;16.86;71.49;100549.75;4910683;28;20041;-81
2021/05/11 05:55:24;;;;;;;3.42;2.22;;;19.10;99.90;;;17.91;69.41;100547.00;4909824;28;20049;-80
2021/05/11 05:57:47;;;;;;;4.03;2.70;;;19.50;99.90;;;17.73;68.63;100543.94;4913335;28;20430;-78
2021/05/11 06:00:14;;;;;;;3.83;2.33;;;19.50;99.90;;;18.20;67.04;100545.47;4911538;28;20048;-81
2021/05/11 06:02:43;;;;;;;4.00;2.17;;;;;;;18.30;66.79;100547.41;4913143;28;20052;-81
2021/05/11 06:05:07;;;;;;;2.55;1.90;;;20.20;99.90;;;18.01;67.22;100534.59;4909809;28;20060;-85
2021/05/11 06:07:46;;;;;;;4.40;2.47;;;19.60;99.90;;;16.77;72.85;100527.34;4909119;28;20049;-82
2021/05/11 06:10:12;;;;;;;5.63;2.28;;;19.10;99.90;;;17.88;67.57;100512.59;4907808;28;20036;-80
2021/05/11 06:12:39;;;;;;;;;;;19.60;99.90;;;18.36;65.06;100498.91;4904793;28;20047;-81
2021/05/11 06:17:42;;;;;;;5.30;2.30;;;19.00;99.90;;;17.41;69.05;100486.97;4904810;28;20059;-81
2021/05/11 06:20:09;;;;;;;3.35;2.38;;;18.70;99.90;;;17.31;70.20;100479.81;4899932;28;20094;-79
2021/05/11 06:22:32;;;;;;;4.40;2.03;;;18.80;99.90;;;17.13;69.16;100464.34;4909939;28;20044;-79
2021/05/11 06:24:56;;;;;;;3.05;1.95;;;18.70;99.90;;;16.98;70.22;100457.56;4911782;28;20534;-81
2021/05/11 06:27:20;;;;;;;3.22;2.00;;;18.70;99.90;;;17.30;69.05;100451.50;4907993;28;20040;-82
2021/05/11 06:29:45;;;;;;;4.18;1.98;;;18.50;99.90;;;17.21;68.86;100453.97;4911745;28;20045;-81
2021/05/11 06:32:12;;;;;;;4.40;2.30;;;18.10;99.90;;;16.64;71.19;100467.25;4913425;28;20052;-81
2021/05/11 06:34:37;;;;;;;3.35;2.08;;;18.30;99.90;;;17.01;69.12;100449.34;4908172;28;20162;-79
2021/05/11 06:37:00;;;;;;;4.38;2.38;;;17.80;99.90;;;16.53;71.43;100466.25;4910009;28;21350;-79
2021/05/11 06:39:23;;;;;;;6.75;2.78;;;17.50;99.90;;;16.09;72.86;100462.47;4912112;28;20044;-84
2021/05/11 06:41:49;;;;;;;5.97;2.28;;;17.10;99.90;;;15.95;74.26;100459.97;4911812;28;20049;-83
2021/05/11 06:44:17;;;;;;;3.63;2.20;;;17.00;99.90;;;15.91;74.26;100456.69;4913111;28;20048;-78
2021/05/11 06:49:36;;;;;;;3.17;2.13;;;18.10;99.90;;;17.15;69.72;100445.63;4907752;28;20045;-86
2021/05/11 06:54:40;;;;;;;5.03;2.47;;;17.40;99.90;;;16.23;73.80;100449.97;4879893;28;20506;-77
2021/05/11 06:57:05;;;;;;;5.38;2.47;;;17.10;99.90;;;15.70;74.64;100460.88;4906482;28;20051;-79
2021/05/11 06:59:29;;;;;;;3.60;2.03;;;16.80;99.90;;;15.74;75.09;100459.72;4910876;28;20052;-78
2021/05/11 07:02:01;;;;;;;5.93;3.00;;;16.80;99.90;;;15.82;74.51;100453.88;4912943;28;20041;-80
2021/05/11 07:04:23;;;;;;;6.15;2.72;;;16.90;99.90;;;15.72;75.24;100446.59;4909123;28;20057;-80
2021/05/11 07:06:46;;;;;;;5.13;2.35;;;16.90;99.90;;;15.92;75.47;100450.44;4910743;28;20048;-82
2021/05/11 07:09:14;;;;;;;7.85;3.05;;;16.80;99.90;;;15.78;74.22;100454.06;4889665;28;20056;-80
2021/05/11 07:14:16;;;;;;;6.95;2.75;;;16.80;99.90;;;15.26;75.77;100447.16;4907268;28;20037;-82
2021/05/11 07:16:38;;;;;;;3.65;2.42;;;16.40;99.90;;;15.21;76.39;100444.00;4906018;28;20044;-79
2021/05/11 07:19:04;;;;;;;5.93;2.67;;;16.60;99.90;;;15.53;76.78;100443.53;4909325;28;20060;-80
2021/05/11 07:21:27;;;;;;;3.40;2.63;;;16.60;99.90;;;15.82;75.80;100443.25;4909535;28;20044;-79
2021/05/11 07:23:49;;;;;;;11.85;4.47;;;16.60;99.90;;;15.59;74.01;100435.97;4908722;28;20052;-79
2021/05/11 07:26:24;;;;;;;4.82;2.80;;;16.70;99.90;;;15.85;74.99;100443.84;4911416;28;20094;-86
2021/05/11 07:29:03;;;;;;;4.55;2.83;;;16.70;99.90;;;15.79;74.45;100445.16;4907557;28;20094;-79
2021/05/11 07:31:27;;;;;;;5.05;3.00;;;17.00;99.90;;;16.01;74.29;100432.97;4900608;28;20459;-79
2021/05/11 07:33:51;;;;;;;4.93;3.00;;;17.00;99.90;;;16.03;72.10;100435.53;4905624;28;20041;-80
2021/05/11 07:36:16;;;;;;;9.63;3.70;;;16.70;99.90;;;15.26;74.34;100441.03;4914789;28;20052;-84
2021/05/11 07:38:55;;;;;;;5.35;3.10;;;16.50;99.90;;;15.70;74.08;100447.59;4914900;28;20041;-82
2021/05/11 07:41:19;;;;;;;6.68;3.20;;;16.80;99.90;;;15.87;73.04;100444.59;4909360;28;20380;-80
2021/05/11 07:43:45;;;;;;;5.25;3.13;;;17.20;99.90;;;16.46;70.43;100449.09;4904370;28;20384;-84
2021/05/11 08:05:23;;;;;;;7.15;3.55;;;19.80;99.90;;;19.99;58.47;100429.63;4864261;28;20052;-80
2021/05/11 08:10:48;;;;;;;5.07;3.50;;;19.90;99.90;;;20.13;57.09;100439.06;4913388;28;20044;-79
2021/05/11 08:15:56;;;;;;;8.32;3.10;;;20.40;99.90;;;20.04;57.58;100431.88;4912135;28;20048;-81
2021/05/11 08:18:27;;;;;;;10.40;3.85;;;20.00;99.90;;;19.27;56.97;100439.56;4912797;28;20037;-79
2021/05/11 08:29:19;;;;;;;6.00;3.78;;;19.50;99.90;;;19.37;59.24;100431.59;4891597;28;20072;-79
2021/05/11 08:31:43;;;;;;;5.20;3.22;;;20.00;99.90;;;20.18;56.79;100412.75;4907013;28;20476;-78
2021/05/11 08:34:20;;;;;;;6.43;3.40;;;20.90;99.90;;;19.76;58.31;100418.38;4909825;28;20043;-82
2021/05/11 08:36:44;;;;;;;7.82;4.47;;;;;;;19.86;56.36;100419.22;4913964;28;20036;-79
2021/05/11 08:39:07;;;;;;;7.45;3.55;;;20.80;99.90;;;20.61;54.77;100408.78;4911776;28;20105;-81
2021/05/11 08:41:30;;;;;;;9.88;3.45;;;20.90;99.90;;;20.85;54.72;100413.66;4912711;28;20435;-80
2021/05/11 08:43:53;;;;;;;4.70;3.50;;;21.00;99.90;;;20.30;55.43;100421.47;4900011;28;20052;-79
2021/05/11 08:46:19;;;;;;;7.13;3.75;;;20.40;99.90;;;19.56;59.96;100427.28;4912957;28;20098;-80
2021/05/11 08:48:42;;;;;;;9.93;4.30;;;20.00;99.90;;;19.03;60.26;100434.53;4910477;28;20052;-80
2021/05/11 08:51:09;;;;;;;7.88;4.20;;;19.70;99.90;;;18.14;62.01;100447.41;4913615;28;20071;-80
2021/05/11 10:40:52;;;;;;;8.80;4.68;;;18.80;99.90;;;17.98;68.43;100373.22;4859598;27;20049;-82
2021/05/11 10:48:42;;;;;;;5.85;4.00;;;18.00;99.90;;;16.47;67.93;100381.66;4880347;27;20492;-81
2021/05/11 10:51:15;;;;;;;7.22;4.35;;;17.80;99.90;;;16.28;68.47;100378.72;4865440;27;20045;-79
2021/05/11 10:53:43;;;;;;;9.23;4.97;;;17.80;99.90;;;16.81;69.57;100379.09;4870907;27;20045;-78
2021/05/11 10:56:57;;;;;;;7.28;4.93;;;17.90;99.90;;;17.35;71.77;100381.00;4877363;27;20140;-78
2021/05/11 10:59:42;;;;;;;6.75;4.07;;;18.50;99.90;;;17.72;67.44;100379.81;4868977;27;20064;-78
2021/05/11 11:05:01;;;;;;;10.60;5.50;;;18.00;99.90;;;17.08;69.80;100370.75;4881580;27;20459;-81
2021/05/11 11:07:37;;;;;;;6.75;4.35;;;18.40;99.90;;;17.60;72.52;100373.69;4879915;27;20043;-75
2021/05/11 11:10:04;;;;;;;6.68;4.15;;;19.20;99.90;;;18.55;65.81;100356.91;4872306;27;20037;-79
2021/05/11 11:12:42;;;;;;;4.90;3.78;;;19.50;99.90;;;18.19;67.48;100351.94;4876406;27;20117;-78
2021/05/11 11:15:15;;;;;;;8.18;4.78;;;19.60;99.90;;;18.87;68.43;100351.47;4872015;27;20041;-78
2021/05/11 11:17:50;;;;;;;8.70;4.40;;;19.80;99.90;;;18.57;63.77;100363.78;4868517;27;20060;-79
2021/05/11 11:20:14;;;;;;;8.20;4.18;;;19.80;99.90;;;19.30;67.21;100354.84;4876431;27;20034;-80
2021/05/11 11:25:21;;;;;;;7.40;4.10;;;19.80;99.90;;;18.22;67.07;100350.81;4868481;27;20133;-79
2021/05/11 11:27:48;;;;;;;6.80;4.87;;;19.30;99.90;;;18.00;69.12;100347.28;4880923;27;20046;-78
2021/05/11 11:30:16;;;;;;;6.43;4.60;;;19.30;99.90;;;18.40;71.30;100337.72;4916896;27;20049;-77
2021/05/11 11:32:40;;;;;;;7.70;4.55;;;19.60;99.90;;;18.50;64.23;100338.63;4864985;27;20049;-79
2021/05/11 11:35:06;;;;;;;6.35;4.60;;;19.80;99.90;;;18.12;66.30;100328.56;4864986;27;20061;-78
2021/05/11 11:37:42;;;;;;;6.40;4.38;;;19.40;99.90;;;17.88;68.11;100329.66;4873097;27;20042;-81
2021/05/11 11:40:12;;;;;;;6.45;4.13;;;19.30;99.90;;;18.63;67.67;100331.25;4850299;27;20052;-76
2021/05/11 11:42:39;;;;;;;6.25;4.13;;;19.60;99.90;;;18.79;68.90;100330.81;4881908;27;20053;-76
2021/05/11 11:45:02;;;;;;;6.68;4.45;;;19.50;99.90;;;18.37;67.94;100325.53;4866950;27;20046;-77
2021/05/11 11:47:28;;;;;;;6.68;4.90;;;19.70;99.90;;;18.35;65.80;100321.31;4900626;27;20535;-78
2021/05/11 11:49:56;;;;;;;10.85;4.00;;;19.50;99.90;;;18.43;65.80;100316.16;4882731;27;20037;-77
2021/05/11 11:52:24;;;;;;;7.38;4.10;;;19.60;99.90;;;18.84;68.10;100309.91;4870294;27;20492;-77
2021/05/11 11:55:00;;;;;;;8.05;4.38;;;19.70;99.90;;;19.04;67.42;100310.81;4881599;27;20045;-79
2021/05/11 12:00:09;;;;;;;7.68;4.40;;;20.10;99.90;;;18.95;65.91;100300.97;4870237;27;20052;-84
2021/05/11 12:02:33;;;;;;;11.13;4.60;;;;;;;19.60;64.97;100298.69;4875812;27;20060;-83
2021/05/11 12:05:18;;;;;;;8.85;4.43;;;20.30;99.90;;;19.30;64.88;100299.63;4871401;27;20041;-82
2021/05/11 12:07:55;;;;;;;7.78;4.70;;;19.90;99.90;;;18.71;64.51;100303.09;4853537;27;20049;-83
2021/05/11 12:10:19;;;;;;;10.02;4.72;;;19.70;99.90;;;18.46;66.36;100299.88;4863659;28;20049;-83
2021/05/11 12:12:42;;;;;;;16.17;4.80;;;19.70;99.90;;;18.80;67.40;100291.66;4874200;27;20047;-82
2021/05/11 12:15:13;;;;;;;10.82;4.47;;;19.90;99.90;;;18.48;64.90;100291.78;4878009;27;20054;-83
2021/05/11 12:17:59;;;;;;;7.32;4.53;;;;;;;18.87;69.19;100292.78;4915189;27;20053;-82
2021/05/11 12:20:25;;;;;;;5.63;4.25;;;20.00;99.90;;;19.10;64.51;100297.94;4871920;27;20370;-83
2021/05/11 12:23:22;;;;;;;11.30;4.40;;;20.10;99.90;;;19.01;64.62;100303.09;4878442;27;20408;-83
2021/05/11 12:25:56;;;;;;;5.93;4.13;;;20.00;99.90;;;18.40;65.59;100295.94;4865140;27;20032;-84
2021/05/11 12:28:38;;;;;;;5.78;4.05;;;19.60;99.90;;;18.73;63.41;100290.47;4895613;27;20057;-82
2021/05/11 12:31:02;;;;;;;10.32;4.82;;;19.90;99.90;;;19.06;66.60;100292.00;4862446;28;20041;-79
2021/05/11 12:33:38;;;;;;;14.65;4.80;;;20.20;99.90;;;18.87;63.79;100292.78;4872800;28;20045;-81
2021/05/11 12:36:14;;;;;;;7.78;4.55;;;20.10;99.90;;;19.17;62.38;100293.72;4878910;28;20038;-82
2021/05/11 12:38:37;;;;;;;11.80;4.45;;;20.20;99.90;;;19.41;64.60;100283.47;4863677;27;20037;-80
2021/05/11 12:41:04;;;;;;;6.72;4.38;;;20.30;99.90;;;19.43;60.75;100278.84;4860405;28;20081;-79
2021/05/11 12:43:43;;;;;;;6.60;4.10;;;20.50;99.90;;;19.59;60.69;100277.44;4881527;27;20045;-80
2021/05/11 12:46:20;;;;;;;13.68;4.53;;;20.60;99.90;;;19.68;59.75;100281.97;4862315;27;20099;-80
2021/05/11 12:49:18;;;;;;;9.27;4.43;;;20.80;99.90;;;19.98;61.72;100282.81;4885888;27;20072;-80
2021/05/11 12:51:46;;;;;;;8.05;4.57;;;20.90;99.90;;;19.98;60.76;100274.81;4866687;27;20049;-82
2021/05/11 12:54:29;;;;;;;8.70;4.40;;;20.60;99.90;;;19.47;62.91;100269.59;4882353;27;20056;-82
2021/05/11 12:57:05;;;;;;;8.35;4.43;;;20.60;99.90;;;19.63;63.34;100278.84;4877769;27;20049;-81
2021/05/11 12:59:34;;;;;;;10.02;5.05;;;20.50;99.90;;;19.29;62.91;100276.59;4873444;27;20557;-80
2021/05/11 13:02:06;;;;;;;11.23;5.03;;;20.40;99.90;;;19.21;63.43;100263.09;4872355;27;20187;-80
2021/05/11 13:26:40;;;;;;;;;;;20.70;99.90;;;19.83;62.09;100240.50;4870705;27;20094;-80
2021/05/11 13:29:06;;;;;;;8.17;4.27;;;20.80;99.90;;;20.08;64.89;100244.38;4876230;27;19970;-79
2021/05/11 13:31:37;;;;;;;7.28;4.20;;;21.00;99.90;;;19.78;59.61;100242.75;4871573;27;20113;-80
2021/05/11 13:34:10;;;;;;;9.93;4.75;;;20.70;99.90;;;19.63;60.38;100241.47;4874710;27;20056;-79
2021/05/11 13:36:42;;;;;;;18.75;5.80;;;20.20;99.90;;;19.04;61.75;100230.78;4856963;27;20042;-79
2021/05/11 13:39:07;;;;;;;15.95;5.65;;;19.90;99.90;;;18.70;63.80;100243.56;4865638;27;20046;-80
2021/05/11 13:41:42;;;;;;;16.02;6.32;;;19.60;99.90;;;18.16;62.95;100247.41;4872963;27;20052;-80
2021/05/11 13:44:07;;;;;;;11.53;5.93;;;19.30;99.90;;;18.10;65.39;100246.13;4861990;27;20076;-79
2021/05/11 13:46:34;;;;;;;13.88;5.18;;;19.30;99.90;;;18.33;62.71;100238.81;4864526;27;20795;-82
2021/05/11 13:48:57;;;;;;;12.40;5.20;;;19.40;99.90;;;18.33;64.10;100233.47;4847839;27;20038;-79
2021/05/11 13:51:27;;;;;;;7.15;4.88;;;19.70;99.90;;;18.97;65.19;100215.47;4869407;27;20049;-78
2021/05/11 13:53:56;;;;;;;16.10;5.43;;;19.70;99.90;;;18.45;61.21;100221.75;4859472;27;20053;-80
2021/05/11 13:56:48;;;;;;;10.55;4.90;;;19.70;99.90;;;18.75;63.05;100209.34;4873069;27;20046;-80
2021/05/11 14:04:48;;;;;;;13.05;5.57;;;19.80;99.90;;;18.58;64.08;100216.19;4850267;27;20111;-80
2021/05/11 14:07:17;;;;;;;13.13;5.10;;;19.50;99.90;;;18.38;64.88;100209.06;4879444;27;20054;-80
2021/05/11 14:09:41;;;;;;;23.20;6.13;;;19.30;99.90;;;18.34;63.78;100211.19;4872661;27;20049;-80
2021/05/11 14:12:05;;;;;;;10.07;5.90;;;19.40;99.90;;;18.47;64.62;100207.47;4869787;27;20056;-80